sensor_id;sensor_type;location;lat;lon;timestamp;pressure;altitude;pressure_sealevel;temperature;humidity
65553;BME280;52465;51.560;14.368;2023-06-14T00:01:37;100307.97;;;21.34;50.11
65553;BME280;52465;51.560;14.368;2023-06-14T00:04:03;100330.13;;;21.46;49.88
65553;BME280;52465;51.560;14.368;2023-06-14T00:06:30;100343.94;;;21.55;49.87
65553;BME280;52465;51.560;14.368;2023-06-14T00:08:55;100337.78;;;21.54;50.02
65553;BME280;52465;51.560;14.368;2023-06-14T00:11:21;100339.66;;;21.54;50.01
65553;BME280;52465;51.560;14.368;2023-06-14T00:13:46;100328.03;;;21.48;50.00
65553;BME280;52465;51.560;14.368;2023-06-14T00:16:12;100324.44;;;21.43;49.85
65553;BME280;52465;51.560;14.368;2023-06-14T00:18:38;100297.38;;;21.27;50.21
65553;BME280;52465;51.560;14.368;2023-06-14T00:21:04;100280.53;;;21.15;50.15
65553;BME280;52465;51.560;14.368;2023-06-14T00:23:29;100333.38;;;21.48;50.14
65553;BME280;52465;51.560;14.368;2023-06-14T00:25:55;100325.25;;;21.43;50.30
65553;BME280;52465;51.560;14.368;2023-06-14T00:28:20;100317.22;;;21.31;50.05
65553;BME280;52465;51.560;14.368;2023-06-14T00:30:46;100339.59;;;21.42;50.16
65553;BME280;52465;51.560;14.368;2023-06-14T00:33:12;100340.22;;;21.44;50.21
65553;BME280;52465;51.560;14.368;2023-06-14T00:35:37;100341.84;;;21.45;50.21
65553;BME280;52465;51.560;14.368;2023-06-14T00:38:03;100337.56;;;21.44;50.09
65553;BME280;52465;51.560;14.368;2023-06-14T00:40:28;100329.41;;;21.39;50.32
65553;BME280;52465;51.560;14.368;2023-06-14T00:42:53;100318.03;;;21.32;50.51
65553;BME280;52465;51.560;14.368;2023-06-14T00:45:19;100323.16;;;21.33;50.31
65553;BME280;52465;51.560;14.368;2023-06-14T00:47:45;100336.13;;;21.42;50.60
65553;BME280;52465;51.560;14.368;2023-06-14T00:50:11;100321.63;;;21.37;50.28
65553;BME280;52465;51.560;14.368;2023-06-14T00:52:37;100333.69;;;21.40;50.45
65553;BME280;52465;51.560;14.368;2023-06-14T00:55:03;100316.84;;;21.28;50.49
65553;BME280;52465;51.560;14.368;2023-06-14T00:57:28;100333.09;;;21.38;50.40
65553;BME280;52465;51.560;14.368;2023-06-14T00:59:57;100316.41;;;21.31;50.22
65553;BME280;52465;51.560;14.368;2023-06-14T01:02:23;100329.47;;;21.32;50.21
65553;BME280;52465;51.560;14.368;2023-06-14T01:04:49;100320.09;;;21.30;50.27
65553;BME280;52465;51.560;14.368;2023-06-14T01:07:50;100324.75;;;21.34;50.45
65553;BME280;52465;51.560;14.368;2023-06-14T01:14:12;100322.78;;;21.30;50.47
65553;BME280;52465;51.560;14.368;2023-06-14T01:16:38;100327.84;;;21.31;50.47
65553;BME280;52465;51.560;14.368;2023-06-14T01:19:05;100332.63;;;21.29;50.61
65553;BME280;52465;51.560;14.368;2023-06-14T01:21:30;100332.44;;;21.24;50.42
65553;BME280;52465;51.560;14.368;2023-06-14T01:25:45;100333.41;;;21.30;50.48
65553;BME280;52465;51.560;14.368;2023-06-14T01:28:12;100329.09;;;21.29;50.49
65553;BME280;52465;51.560;14.368;2023-06-14T01:30:41;100333.81;;;21.27;50.42
65553;BME280;52465;51.560;14.368;2023-06-14T01:33:14;100330.81;;;21.23;50.62
65553;BME280;52465;51.560;14.368;2023-06-14T01:35:44;100328.72;;;21.25;50.34
65553;BME280;52465;51.560;14.368;2023-06-14T01:38:10;100323.88;;;21.22;50.54
65553;BME280;52465;51.560;14.368;2023-06-14T01:40:36;100328.38;;;21.22;50.45
65553;BME280;52465;51.560;14.368;2023-06-14T01:43:02;100323.50;;;21.19;50.60
65553;BME280;52465;51.560;14.368;2023-06-14T01:47:14;100302.72;;;21.09;50.48
65553;BME280;52465;51.560;14.368;2023-06-14T01:49:39;100329.41;;;21.21;50.52
65553;BME280;52465;51.560;14.368;2023-06-14T01:52:05;100332.06;;;21.21;50.60
65553;BME280;52465;51.560;14.368;2023-06-14T01:54:31;100321.50;;;21.14;50.65
65553;BME280;52465;51.560;14.368;2023-06-14T01:56:57;100319.88;;;21.13;50.70
65553;BME280;52465;51.560;14.368;2023-06-14T01:59:22;100318.13;;;21.07;50.43
65553;BME280;52465;51.560;14.368;2023-06-14T02:01:47;100315.09;;;21.03;50.51
65553;BME280;52465;51.560;14.368;2023-06-14T02:04:13;100330.63;;;21.06;50.64
65553;BME280;52465;51.560;14.368;2023-06-14T02:06:38;100320.88;;;21.00;50.65
65553;BME280;52465;51.560;14.368;2023-06-14T02:09:03;100320.88;;;21.00;50.67
65553;BME280;52465;51.560;14.368;2023-06-14T02:11:29;100346.50;;;21.13;51.04
65553;BME280;52465;51.560;14.368;2023-06-14T02:13:55;100334.31;;;21.05;50.70
65553;BME280;52465;51.560;14.368;2023-06-14T02:16:20;100346.94;;;21.10;50.80
65553;BME280;52465;51.560;14.368;2023-06-14T02:18:47;100354.72;;;21.11;50.66
65553;BME280;52465;51.560;14.368;2023-06-14T02:21:13;100352.72;;;21.07;50.76
65553;BME280;52465;51.560;14.368;2023-06-14T02:23:39;100347.41;;;21.07;50.52
65553;BME280;52465;51.560;14.368;2023-06-14T02:26:04;100361.28;;;21.09;50.84
65553;BME280;52465;51.560;14.368;2023-06-14T02:28:30;100341.94;;;21.02;50.94
65553;BME280;52465;51.560;14.368;2023-06-14T02:30:55;100332.84;;;20.91;50.98
65553;BME280;52465;51.560;14.368;2023-06-14T02:33:21;100350.50;;;21.04;50.83
65553;BME280;52465;51.560;14.368;2023-06-14T02:35:47;100347.09;;;20.97;50.90
65553;BME280;52465;51.560;14.368;2023-06-14T02:38:12;100344.81;;;21.00;50.87
65553;BME280;52465;51.560;14.368;2023-06-14T02:40:38;100321.84;;;20.88;50.63
65553;BME280;52465;51.560;14.368;2023-06-14T02:43:03;100342.50;;;21.04;50.90
65553;BME280;52465;51.560;14.368;2023-06-14T02:45:28;100325.91;;;20.90;50.85
65553;BME280;52465;51.560;14.368;2023-06-14T02:47:53;100331.53;;;21.00;50.95
65553;BME280;52465;51.560;14.368;2023-06-14T02:50:20;100312.44;;;20.85;51.00
65553;BME280;52465;51.560;14.368;2023-06-14T02:52:46;100337.66;;;21.01;51.02
65553;BME280;52465;51.560;14.368;2023-06-14T02:55:12;100346.69;;;21.00;51.04
65553;BME280;52465;51.560;14.368;2023-06-14T02:57:38;100347.09;;;20.97;51.16
65553;BME280;52465;51.560;14.368;2023-06-14T03:00:04;100319.09;;;20.76;51.36
65553;BME280;52465;51.560;14.368;2023-06-14T03:02:30;100344.53;;;20.90;51.10
65553;BME280;52465;51.560;14.368;2023-06-14T03:04:56;100358.56;;;20.97;51.04
65553;BME280;52465;51.560;14.368;2023-06-14T03:07:21;100366.78;;;20.96;51.10
65553;BME280;52465;51.560;14.368;2023-06-14T03:09:48;100350.06;;;20.89;51.07
65553;BME280;52465;51.560;14.368;2023-06-14T03:12:14;100354.59;;;20.88;51.07
65553;BME280;52465;51.560;14.368;2023-06-14T03:14:40;100353.63;;;20.82;51.00
65553;BME280;52465;51.560;14.368;2023-06-14T03:17:05;100365.59;;;20.92;51.04
65553;BME280;52465;51.560;14.368;2023-06-14T03:19:31;100344.06;;;20.75;51.11
65553;BME280;52465;51.560;14.368;2023-06-14T03:21:56;100368.47;;;20.90;51.13
65553;BME280;52465;51.560;14.368;2023-06-14T03:24:25;100374.59;;;20.91;51.20
65553;BME280;52465;51.560;14.368;2023-06-14T03:26:54;100377.50;;;20.89;51.17
65553;BME280;52465;51.560;14.368;2023-06-14T03:29:19;100382.59;;;20.91;51.00
65553;BME280;52465;51.560;14.368;2023-06-14T03:34:46;100368.97;;;20.80;51.26
65553;BME280;52465;51.560;14.368;2023-06-14T03:37:11;100376.16;;;20.80;50.92
65553;BME280;52465;51.560;14.368;2023-06-14T03:39:37;100397.59;;;20.85;51.14
65553;BME280;52465;51.560;14.368;2023-06-14T03:42:03;100385.09;;;20.85;51.21
65553;BME280;52465;51.560;14.368;2023-06-14T03:44:28;100386.16;;;20.84;51.24
65553;BME280;52465;51.560;14.368;2023-06-14T03:46:54;100387.59;;;20.80;51.40
65553;BME280;52465;51.560;14.368;2023-06-14T03:49:19;100378.66;;;20.75;51.18
65553;BME280;52465;51.560;14.368;2023-06-14T03:51:45;100375.84;;;20.70;51.43
65553;BME280;52465;51.560;14.368;2023-06-14T03:54:11;100392.72;;;20.82;51.15
65553;BME280;52465;51.560;14.368;2023-06-14T03:56:36;100394.56;;;20.81;51.38
65553;BME280;52465;51.560;14.368;2023-06-14T03:59:01;100397.44;;;20.80;51.30
65553;BME280;52465;51.560;14.368;2023-06-14T04:01:27;100397.66;;;20.78;51.25
65553;BME280;52465;51.560;14.368;2023-06-14T04:03:56;100400.09;;;20.80;51.48
65553;BME280;52465;51.560;14.368;2023-06-14T04:06:22;100400.34;;;20.78;51.18
65553;BME280;52465;51.560;14.368;2023-06-14T04:08:51;100394.19;;;20.78;51.33
65553;BME280;52465;51.560;14.368;2023-06-14T04:11:17;100401.78;;;20.74;51.41
65553;BME280;52465;51.560;14.368;2023-06-14T04:13:42;100378.56;;;20.63;51.32
65553;BME280;52465;51.560;14.368;2023-06-14T04:16:08;100366.38;;;20.55;51.29
65553;BME280;52465;51.560;14.368;2023-06-14T04:18:33;100410.38;;;20.76;51.33
65553;BME280;52465;51.560;14.368;2023-06-14T04:20:58;100402.41;;;20.76;51.37
65553;BME280;52465;51.560;14.368;2023-06-14T04:23:24;100410.59;;;20.75;51.28
65553;BME280;52465;51.560;14.368;2023-06-14T04:25:49;100381.69;;;20.60;51.36
65553;BME280;52465;51.560;14.368;2023-06-14T04:28:15;100414.06;;;20.75;51.31
65553;BME280;52465;51.560;14.368;2023-06-14T04:30:44;100405.19;;;20.63;51.38
65553;BME280;52465;51.560;14.368;2023-06-14T04:33:10;100411.47;;;20.69;51.50
65553;BME280;52465;51.560;14.368;2023-06-14T04:35:36;100415.16;;;20.68;51.50
65553;BME280;52465;51.560;14.368;2023-06-14T04:38:03;100414.34;;;20.67;51.40
65553;BME280;52465;51.560;14.368;2023-06-14T04:40:30;100389.00;;;20.40;51.39
65553;BME280;52465;51.560;14.368;2023-06-14T04:42:55;100423.38;;;20.66;51.31
65553;BME280;52465;51.560;14.368;2023-06-14T04:45:22;100430.91;;;20.69;51.30
65553;BME280;52465;51.560;14.368;2023-06-14T04:47:48;100438.88;;;20.69;51.39
65553;BME280;52465;51.560;14.368;2023-06-14T04:52:20;100430.56;;;20.59;51.49
65553;BME280;52465;51.560;14.368;2023-06-14T04:54:46;100437.84;;;20.70;51.41
65553;BME280;52465;51.560;14.368;2023-06-14T04:57:12;100459.13;;;20.70;51.42
65553;BME280;52465;51.560;14.368;2023-06-14T04:59:40;100441.38;;;20.64;51.52
65553;BME280;52465;51.560;14.368;2023-06-14T05:02:05;100444.19;;;20.69;51.62
65553;BME280;52465;51.560;14.368;2023-06-14T05:04:31;100444.44;;;20.68;51.42
65553;BME280;52465;51.560;14.368;2023-06-14T05:06:57;100439.34;;;20.66;51.43
65553;BME280;52465;51.560;14.368;2023-06-14T05:09:22;100442.00;;;20.66;51.48
65553;BME280;52465;51.560;14.368;2023-06-14T05:11:48;100440.38;;;20.65;51.51
65553;BME280;52465;51.560;14.368;2023-06-14T05:14:13;100438.53;;;20.66;51.55
65553;BME280;52465;51.560;14.368;2023-06-14T05:16:39;100431.13;;;20.68;51.52
65553;BME280;52465;51.560;14.368;2023-06-14T05:19:06;100428.31;;;20.63;51.48
65553;BME280;52465;51.560;14.368;2023-06-14T05:21:31;100421.13;;;20.63;51.45
65553;BME280;52465;51.560;14.368;2023-06-14T05:23:59;100425.41;;;20.64;51.41
65553;BME280;52465;51.560;14.368;2023-06-14T05:26:24;100403.00;;;20.53;51.32
65553;BME280;52465;51.560;14.368;2023-06-14T05:28:56;100423.22;;;20.61;51.44
65553;BME280;52465;51.560;14.368;2023-06-14T05:31:25;100419.19;;;20.52;51.35
65553;BME280;52465;51.560;14.368;2023-06-14T05:36:00;100434.72;;;20.55;51.27
65553;BME280;52465;51.560;14.368;2023-06-14T05:38:26;100439.59;;;20.58;51.30
65553;BME280;52465;51.560;14.368;2023-06-14T05:40:51;100449.88;;;20.54;51.10
65553;BME280;52465;51.560;14.368;2023-06-14T05:43:17;100451.72;;;20.54;51.21
65553;BME280;52465;51.560;14.368;2023-06-14T05:45:42;100448.22;;;20.53;51.32
65553;BME280;52465;51.560;14.368;2023-06-14T05:48:07;100448.28;;;20.47;51.33
65553;BME280;52465;51.560;14.368;2023-06-14T05:50:32;100446.25;;;20.49;51.28
65553;BME280;52465;51.560;14.368;2023-06-14T05:52:58;100454.84;;;20.44;50.98
65553;BME280;52465;51.560;14.368;2023-06-14T05:55:24;100448.66;;;20.50;50.95
65553;BME280;52465;51.560;14.368;2023-06-14T05:57:50;100445.78;;;20.52;50.73
65553;BME280;52465;51.560;14.368;2023-06-14T06:00:16;100433.94;;;20.48;50.82
65553;BME280;52465;51.560;14.368;2023-06-14T06:02:42;100420.44;;;20.49;50.54
65553;BME280;52465;51.560;14.368;2023-06-14T06:05:11;100443.16;;;20.70;50.43
65553;BME280;52465;51.560;14.368;2023-06-14T06:07:37;100438.16;;;20.80;50.31
65553;BME280;52465;51.560;14.368;2023-06-14T06:10:05;100454.91;;;20.88;50.32
65553;BME280;52465;51.560;14.368;2023-06-14T06:12:31;100416.94;;;20.74;50.10
65553;BME280;52465;51.560;14.368;2023-06-14T06:14:56;100445.00;;;20.95;50.02
65553;BME280;52465;51.560;14.368;2023-06-14T06:17:22;100449.88;;;20.98;50.00
65553;BME280;52465;51.560;14.368;2023-06-14T06:19:48;100425.75;;;20.93;49.95
65553;BME280;52465;51.560;14.368;2023-06-14T06:22:13;100428.56;;;20.98;49.85
65553;BME280;52465;51.560;14.368;2023-06-14T06:24:38;100450.56;;;21.11;49.83
65553;BME280;52465;51.560;14.368;2023-06-14T06:27:04;100445.00;;;21.13;49.75
65553;BME280;52465;51.560;14.368;2023-06-14T06:29:29;100458.69;;;21.17;49.80
65553;BME280;52465;51.560;14.368;2023-06-14T06:31:55;100462.75;;;21.19;49.77
65553;BME280;52465;51.560;14.368;2023-06-14T06:34:21;100458.84;;;21.22;49.52
65553;BME280;52465;51.560;14.368;2023-06-14T06:36:46;100460.47;;;21.23;49.70
65553;BME280;52465;51.560;14.368;2023-06-14T06:39:12;100446.78;;;21.19;49.55
65553;BME280;52465;51.560;14.368;2023-06-14T06:41:38;100454.94;;;21.24;49.54
65553;BME280;52465;51.560;14.368;2023-06-14T06:44:07;100456.94;;;21.29;49.66
65553;BME280;52465;51.560;14.368;2023-06-14T06:46:34;100451.31;;;21.19;49.70
65553;BME280;52465;51.560;14.368;2023-06-14T06:49:00;100456.53;;;21.25;49.59
65553;BME280;52465;51.560;14.368;2023-06-14T06:51:25;100473.28;;;21.32;49.57
65553;BME280;52465;51.560;14.368;2023-06-14T06:53:54;100465.53;;;21.31;49.55
65553;BME280;52465;51.560;14.368;2023-06-14T06:56:22;100458.78;;;21.28;49.54
65553;BME280;52465;51.560;14.368;2023-06-14T06:58:52;100481.88;;;21.34;49.55
65553;BME280;52465;51.560;14.368;2023-06-14T07:01:17;100480.03;;;21.35;49.57
65553;BME280;52465;51.560;14.368;2023-06-14T07:03:44;100454.25;;;21.10;49.54
65553;BME280;52465;51.560;14.368;2023-06-14T07:06:10;100479.06;;;21.29;49.69
65553;BME280;52465;51.560;14.368;2023-06-14T07:08:35;100484.97;;;21.31;49.60
65553;BME280;52465;51.560;14.368;2023-06-14T07:11:01;100488.03;;;21.35;49.50
65553;BME280;52465;51.560;14.368;2023-06-14T07:13:27;100488.59;;;21.37;49.58
65553;BME280;52465;51.560;14.368;2023-06-14T07:15:54;100470.25;;;21.29;49.73
65553;BME280;52465;51.560;14.368;2023-06-14T07:18:20;100489.88;;;21.34;49.68
65553;BME280;52465;51.560;14.368;2023-06-14T07:20:45;100487.56;;;21.38;49.56
65553;BME280;52465;51.560;14.368;2023-06-14T07:23:12;100467.19;;;21.25;49.83
65553;BME280;52465;51.560;14.368;2023-06-14T07:25:37;100485.78;;;21.32;49.61
65553;BME280;52465;51.560;14.368;2023-06-14T07:28:03;100481.94;;;21.28;49.74
65553;BME280;52465;51.560;14.368;2023-06-14T07:30:28;100496.69;;;21.30;49.99
65553;BME280;52465;51.560;14.368;2023-06-14T07:32:55;100495.91;;;21.23;49.60
65553;BME280;52465;51.560;14.368;2023-06-14T07:35:20;100476.81;;;21.08;49.91
65553;BME280;52465;51.560;14.368;2023-06-14T07:37:46;100488.41;;;21.13;50.01
65553;BME280;52465;51.560;14.368;2023-06-14T07:40:12;100490.28;;;21.13;50.17
65553;BME280;52465;51.560;14.368;2023-06-14T07:42:38;100505.44;;;21.12;50.11
65553;BME280;52465;51.560;14.368;2023-06-14T07:45:04;100488.72;;;21.05;50.31
65553;BME280;52465;51.560;14.368;2023-06-14T07:47:30;100478.72;;;21.01;50.31
65553;BME280;52465;51.560;14.368;2023-06-14T07:49:55;100492.84;;;21.01;50.30
65553;BME280;52465;51.560;14.368;2023-06-14T07:52:21;100500.59;;;21.03;50.44
65553;BME280;52465;51.560;14.368;2023-06-14T07:54:47;100505.34;;;21.01;50.37
65553;BME280;52465;51.560;14.368;2023-06-14T07:57:12;100497.78;;;20.98;50.50
65553;BME280;52465;51.560;14.368;2023-06-14T08:01:35;100499.03;;;20.95;50.56
65553;BME280;52465;51.560;14.368;2023-06-14T08:04:01;100470.63;;;20.71;50.43
65553;BME280;52465;51.560;14.368;2023-06-14T08:06:27;100507.44;;;20.92;50.44
65553;BME280;52465;51.560;14.368;2023-06-14T08:08:52;100486.69;;;20.82;50.60
65553;BME280;52465;51.560;14.368;2023-06-14T08:11:17;100497.31;;;20.82;50.73
65553;BME280;52465;51.560;14.368;2023-06-14T08:13:43;100499.16;;;20.82;50.66
65553;BME280;52465;51.560;14.368;2023-06-14T08:16:09;100496.72;;;20.80;50.80
65553;BME280;52465;51.560;14.368;2023-06-14T08:18:34;100506.94;;;20.83;50.57
65553;BME280;52465;51.560;14.368;2023-06-14T08:20:59;100503.22;;;20.84;50.75
65553;BME280;52465;51.560;14.368;2023-06-14T08:23:25;100502.84;;;20.81;50.85
65553;BME280;52465;51.560;14.368;2023-06-14T08:25:50;100524.53;;;20.84;50.63
65553;BME280;52465;51.560;14.368;2023-06-14T08:28:16;100503.66;;;20.81;50.66
65553;BME280;52465;51.560;14.368;2023-06-14T08:30:42;100507.75;;;20.84;50.75
65553;BME280;52465;51.560;14.368;2023-06-14T08:33:07;100511.22;;;20.84;50.57
65553;BME280;52465;51.560;14.368;2023-06-14T08:35:33;100512.47;;;20.82;50.33
65553;BME280;52465;51.560;14.368;2023-06-14T08:37:58;100481.84;;;20.73;50.42
65553;BME280;52465;51.560;14.368;2023-06-14T08:40:24;100495.31;;;20.78;50.30
65553;BME280;52465;51.560;14.368;2023-06-14T08:42:53;100489.19;;;20.77;50.38
65553;BME280;52465;51.560;14.368;2023-06-14T08:45:20;100504.28;;;20.83;50.49
65553;BME280;52465;51.560;14.368;2023-06-14T08:47:47;100477.75;;;20.70;50.71
65553;BME280;52465;51.560;14.368;2023-06-14T08:50:17;100490.16;;;20.83;50.40
65553;BME280;52465;51.560;14.368;2023-06-14T08:52:45;100501.16;;;20.86;50.21
65553;BME280;52465;51.560;14.368;2023-06-14T08:55:16;100486.50;;;20.77;50.28
65553;BME280;52465;51.560;14.368;2023-06-14T08:57:43;100484.81;;;20.83;50.41
65553;BME280;52465;51.560;14.368;2023-06-14T09:00:10;100496.72;;;20.80;50.43
65553;BME280;52465;51.560;14.368;2023-06-14T09:02:38;100492.81;;;20.83;50.34
65553;BME280;52465;51.560;14.368;2023-06-14T09:05:13;100492.00;;;20.82;50.31
65553;BME280;52465;51.560;14.368;2023-06-14T09:07:39;100492.59;;;20.84;50.34
65553;BME280;52465;51.560;14.368;2023-06-14T09:10:07;100480.81;;;20.74;50.44
65553;BME280;52465;51.560;14.368;2023-06-14T09:12:33;100501.59;;;20.83;50.34
65553;BME280;52465;51.560;14.368;2023-06-14T09:14:58;100502.66;;;20.82;50.31
65553;BME280;52465;51.560;14.368;2023-06-14T09:17:24;100506.13;;;20.83;50.34
65553;BME280;52465;51.560;14.368;2023-06-14T09:19:50;100499.97;;;20.82;50.37
65553;BME280;52465;51.560;14.368;2023-06-14T09:22:16;100484.72;;;20.71;50.37
65553;BME280;52465;51.560;14.368;2023-06-14T09:24:41;100491.38;;;20.80;50.49
65553;BME280;52465;51.560;14.368;2023-06-14T09:27:07;100500.41;;;20.79;50.45
65553;BME280;52465;51.560;14.368;2023-06-14T09:29:33;100499.00;;;20.77;50.40
65553;BME280;52465;51.560;14.368;2023-06-14T09:31:58;100484.91;;;20.70;50.43
65553;BME280;52465;51.560;14.368;2023-06-14T09:34:24;100512.09;;;20.78;50.52
65553;BME280;52465;51.560;14.368;2023-06-14T09:36:49;100513.94;;;20.78;50.47
65553;BME280;52465;51.560;14.368;2023-06-14T09:39:17;100512.09;;;20.78;50.59
65553;BME280;52465;51.560;14.368;2023-06-14T09:41:42;100508.63;;;20.78;50.58
65553;BME280;52465;51.560;14.368;2023-06-14T09:44:10;100511.50;;;20.76;50.46
65553;BME280;52465;51.560;14.368;2023-06-14T09:46:36;100513.13;;;20.77;50.79
65553;BME280;52465;51.560;14.368;2023-06-14T09:49:03;100514.16;;;20.76;50.58
65553;BME280;52465;51.560;14.368;2023-06-14T09:51:29;100512.31;;;20.77;50.60
65553;BME280;52465;51.560;14.368;2023-06-14T09:54:00;100506.19;;;20.76;50.66
65553;BME280;52465;51.560;14.368;2023-06-14T09:56:41;100506.19;;;20.76;50.61
65553;BME280;52465;51.560;14.368;2023-06-14T10:00:17;100500.25;;;20.74;50.58
65553;BME280;52465;51.560;14.368;2023-06-14T10:02:47;100507.00;;;20.77;50.50
65553;BME280;52465;51.560;14.368;2023-06-14T10:05:17;100489.38;;;20.76;50.47
65553;BME280;52465;51.560;14.368;2023-06-14T10:10:44;100492.66;;;20.78;50.55
65553;BME280;52465;51.560;14.368;2023-06-14T10:13:11;100488.19;;;20.72;50.63
65553;BME280;52465;51.560;14.368;2023-06-14T10:15:45;100490.22;;;20.76;50.55
65553;BME280;52465;51.560;14.368;2023-06-14T10:21:31;100492.88;;;20.76;50.60
65553;BME280;52465;51.560;14.368;2023-06-14T10:24:19;100490.22;;;20.76;50.56
65553;BME280;52465;51.560;14.368;2023-06-14T10:26:53;100467.41;;;20.62;50.52
65553;BME280;52465;51.560;14.368;2023-06-14T10:29:18;100487.97;;;20.73;50.50
65553;BME280;52465;51.560;14.368;2023-06-14T10:31:47;100474.56;;;20.62;50.67
65553;BME280;52465;51.560;14.368;2023-06-14T10:38:42;100481.63;;;20.74;50.48
65553;BME280;52465;51.560;14.368;2023-06-14T10:41:08;100441.13;;;20.41;50.62
65553;BME280;52465;51.560;14.368;2023-06-14T10:43:34;100436.91;;;20.33;50.56
65553;BME280;52465;51.560;14.368;2023-06-14T10:46:15;100490.84;;;20.72;50.65
65553;BME280;52465;51.560;14.368;2023-06-14T10:48:43;100502.91;;;20.74;50.69
65553;BME280;52465;51.560;14.368;2023-06-14T10:51:18;100486.56;;;20.71;50.68
65553;BME280;52465;51.560;14.368;2023-06-14T10:54:11;100486.56;;;20.71;50.63
65553;BME280;52465;51.560;14.368;2023-06-14T10:56:37;100480.28;;;20.65;50.89
65553;BME280;52465;51.560;14.368;2023-06-14T10:59:02;100484.91;;;20.70;50.36
65553;BME280;52465;51.560;14.368;2023-06-14T11:04:07;100479.25;;;20.66;50.67
65553;BME280;52465;51.560;14.368;2023-06-14T11:06:46;100471.31;;;20.59;50.88
65553;BME280;52465;51.560;14.368;2023-06-14T11:09:28;100484.13;;;20.69;50.75
65553;BME280;52465;51.560;14.368;2023-06-14T11:12:01;100486.41;;;20.66;50.72
65553;BME280;52465;51.560;14.368;2023-06-14T11:14:30;100493.34;;;20.67;50.75
65553;BME280;52465;51.560;14.368;2023-06-14T11:16:58;100492.31;;;20.68;50.86
65553;BME280;52465;51.560;14.368;2023-06-14T11:19:24;100469.72;;;20.52;50.88
65553;BME280;52465;51.560;14.368;2023-06-14T11:21:50;100481.13;;;20.59;50.86
65553;BME280;52465;51.560;14.368;2023-06-14T11:24:16;100484.97;;;20.63;50.94
65553;BME280;52465;51.560;14.368;2023-06-14T11:26:42;100486.59;;;20.64;50.83
65553;BME280;52465;51.560;14.368;2023-06-14T11:29:08;100482.72;;;20.67;50.84
65553;BME280;52465;51.560;14.368;2023-06-14T11:31:34;100483.53;;;20.67;50.95
65553;BME280;52465;51.560;14.368;2023-06-14T11:34:00;100470.06;;;20.62;50.92
65553;BME280;52465;51.560;14.368;2023-06-14T11:36:30;100475.94;;;20.71;50.77
65553;BME280;52465;51.560;14.368;2023-06-14T11:39:03;100479.28;;;20.84;50.57
65553;BME280;52465;51.560;14.368;2023-06-14T11:44:04;100467.47;;;20.99;50.07
65553;BME280;52465;51.560;14.368;2023-06-14T11:46:29;100480.44;;;21.13;50.17
65553;BME280;52465;51.560;14.368;2023-06-14T11:48:55;100469.28;;;21.23;50.04
65553;BME280;52465;51.560;14.368;2023-06-14T11:51:20;100460.25;;;21.24;50.07
65553;BME280;52465;51.560;14.368;2023-06-14T11:53:46;100454.66;;;21.32;49.81
65553;BME280;52465;51.560;14.368;2023-06-14T11:56:12;100465.75;;;21.48;49.74
65553;BME280;52465;51.560;14.368;2023-06-14T11:58:37;100460.34;;;21.54;49.53
65553;BME280;52465;51.560;14.368;2023-06-14T12:01:03;100457.00;;;21.59;49.56
65553;BME280;52465;51.560;14.368;2023-06-14T12:03:29;100447.91;;;21.67;49.52
65553;BME280;52465;51.560;14.368;2023-06-14T12:11:03;100428.56;;;21.71;49.14
65553;BME280;52465;51.560;14.368;2023-06-14T12:13:28;100449.25;;;21.87;49.20
65553;BME280;52465;51.560;14.368;2023-06-14T12:15:55;100441.25;;;21.87;49.06
65553;BME280;52465;51.560;14.368;2023-06-14T12:18:21;100444.66;;;21.95;49.13
65553;BME280;52465;51.560;14.368;2023-06-14T12:22:51;100411.13;;;21.87;49.33
65553;BME280;52465;51.560;14.368;2023-06-14T12:29:34;100427.28;;;22.04;49.22
65553;BME280;52465;51.560;14.368;2023-06-14T12:32:01;100433.16;;;22.12;49.19
65553;BME280;52465;51.560;14.368;2023-06-14T12:34:26;100432.91;;;22.14;49.03
65553;BME280;52465;51.560;14.368;2023-06-14T12:36:56;100410.41;;;22.10;49.13
65553;BME280;52465;51.560;14.368;2023-06-14T12:39:21;100421.81;;;22.17;49.27
65553;BME280;52465;51.560;14.368;2023-06-14T12:41:47;100415.19;;;22.20;49.33
65553;BME280;52465;51.560;14.368;2023-06-14T12:44:14;100410.66;;;22.20;49.24
65553;BME280;52465;51.560;14.368;2023-06-14T12:46:41;100414.50;;;22.24;49.00
65553;BME280;52465;51.560;14.368;2023-06-14T12:49:11;100407.31;;;22.25;49.15
65553;BME280;52465;51.560;14.368;2023-06-14T12:51:40;100401.16;;;22.24;49.18
65553;BME280;52465;51.560;14.368;2023-06-14T12:54:06;100385.03;;;22.19;48.84
65553;BME280;52465;51.560;14.368;2023-06-14T12:56:31;100380.16;;;22.16;49.08
65553;BME280;52465;51.560;14.368;2023-06-14T12:58:58;100382.13;;;22.21;49.12
65553;BME280;52465;51.560;14.368;2023-06-14T13:01:23;100394.44;;;22.33;49.04
65553;BME280;52465;51.560;14.368;2023-06-14T13:03:48;100383.06;;;22.26;49.42
65553;BME280;52465;51.560;14.368;2023-06-14T13:06:15;100384.69;;;22.27;49.17
65553;BME280;52465;51.560;14.368;2023-06-14T13:08:41;100391.31;;;22.36;49.04
65553;BME280;52465;51.560;14.368;2023-06-14T13:11:06;100394.00;;;22.36;49.29
65553;BME280;52465;51.560;14.368;2023-06-14T13:13:35;100406.03;;;22.39;49.15
65553;BME280;52465;51.560;14.368;2023-06-14T13:16:00;100397.81;;;22.40;49.03
65553;BME280;52465;51.560;14.368;2023-06-14T13:18:26;100397.81;;;22.40;48.91
65553;BME280;52465;51.560;14.368;2023-06-14T13:20:51;100376.47;;;22.29;49.08
65553;BME280;52465;51.560;14.368;2023-06-14T13:23:17;100382.38;;;22.42;48.98